Time;durP1;ratioP1;P1;durP2;ratioP2;P2;SDS_P1;SDS_P2;PMS_P1;PMS_P2;Temp;Humidity;BMP_temperature;BMP_pressure;BME280_temperature;BME280_humidity;BME280_pressure;Samples;Min_cycle;Max_cycle;Signal;HPM_P1;HPM_P2
2024/03/09 00:03:39;;;;;;;0.53;0.53;;;6.10;96.20;;;;;;10474302;28;20188;-79
2024/03/09 00:08:44;;;;;;;0.50;0.50;;;6.00;96.20;;;;;;10492355;28;20219;-79
2024/03/09 00:13:47;;;;;;;0.60;0.60;;;6.10;96.40;;;;;;10489461;28;20201;-79
2024/03/09 00:18:49;;;;;;;0.50;0.50;;;6.10;96.50;;;;;;10467934;28;20298;-79
2024/03/09 00:23:53;;;;;;;0.50;0.50;;;6.10;96.50;;;;;;10484142;28;20217;-79
2024/03/09 00:28:55;;;;;;;0.47;0.47;;;6.10;96.60;;;;;;10494426;28;20221;-79
2024/03/09 00:33:58;;;;;;;0.43;0.43;;;6.20;96.70;;;;;;10521584;28;20192;-79
2024/03/09 00:39:01;;;;;;;0.53;0.53;;;6.30;96.70;;;;;;10518461;28;20628;-79
2024/03/09 00:44:04;;;;;;;0.50;0.50;;;6.30;96.70;;;;;;10484944;28;20197;-79
2024/03/09 00:49:08;;;;;;;0.50;0.50;;;6.50;96.60;;;;;;10490966;28;20217;-79
2024/03/09 00:54:12;;;;;;;0.50;0.50;;;6.50;96.40;;;;;;10510368;28;20223;-79
2024/03/09 00:59:15;;;;;;;0.50;0.50;;;6.50;96.50;;;;;;10475162;28;20229;-79
2024/03/09 01:04:18;;;;;;;0.50;0.50;;;6.50;96.40;;;;;;10516215;28;20204;-79
2024/03/09 01:09:22;;;;;;;0.60;0.60;;;6.40;96.70;;;;;;10514545;28;20243;-79
2024/03/09 01:14:25;;;;;;;0.57;0.57;;;6.40;96.60;;;;;;10479195;28;20193;-79
2024/03/09 01:19:29;;;;;;;0.50;0.50;;;6.40;96.60;;;;;;10475628;28;20694;-79
2024/03/09 01:24:32;;;;;;;0.50;0.50;;;6.40;96.40;;;;;;10509581;28;20250;-79
2024/03/09 01:29:35;;;;;;;0.50;0.50;;;6.40;96.50;;;;;;10516412;28;20239;-79
2024/03/09 01:34:37;;;;;;;0.40;0.40;;;6.30;96.60;;;;;;10475990;28;20219;-80
2024/03/09 01:39:41;;;;;;;0.60;0.60;;;6.40;96.70;;;;;;10484090;28;20746;-79
2024/03/09 01:44:43;;;;;;;0.50;0.50;;;6.30;96.60;;;;;;10498241;28;20208;-79
2024/03/09 01:49:46;;;;;;;0.50;0.50;;;6.40;96.40;;;;;;10484842;28;20231;-80
2024/03/09 01:54:53;;;;;;;0.50;0.50;;;6.30;96.30;;;;;;10478675;28;20208;-79
2024/03/09 01:59:56;;;;;;;0.50;0.50;;;6.20;96.30;;;;;;10465664;28;20252;-80
2024/03/09 02:05:02;;;;;;;0.60;0.60;;;6.20;96.50;;;;;;10498365;28;20594;-79
2024/03/09 02:10:07;;;;;;;0.50;0.50;;;6.10;96.50;;;;;;10505498;28;20224;-80
2024/03/09 02:15:12;;;;;;;0.50;0.50;;;6.00;96.60;;;;;;10478308;28;20255;-79
2024/03/09 02:20:16;;;;;;;0.60;0.60;;;6.00;96.70;;;;;;10474394;28;20233;-79
2024/03/09 02:25:21;;;;;;;0.50;0.50;;;6.00;96.90;;;;;;10504721;28;20210;-79
2024/03/09 02:30:24;;;;;;;0.57;0.57;;;6.00;97.00;;;;;;10491171;28;20229;-79
2024/03/09 02:35:27;;;;;;;0.50;0.50;;;6.00;96.90;;;;;;10488121;28;20513;-79
2024/03/09 02:40:32;;;;;;;0.40;0.40;;;5.90;97.00;;;;;;10472208;28;20225;-79
2024/03/09 02:45:34;;;;;;;0.60;0.60;;;5.90;97.20;;;;;;10496013;28;20204;-79
2024/03/09 02:50:38;;;;;;;0.50;0.50;;;6.00;97.30;;;;;;10476562;28;20220;-79
2024/03/09 02:55:42;;;;;;;0.47;0.47;;;6.10;97.40;;;;;;10503629;28;20223;-79
2024/03/09 03:00:45;;;;;;;0.47;0.47;;;6.20;97.40;;;;;;10511571;28;20693;-79
2024/03/09 03:05:48;;;;;;;0.50;0.50;;;6.30;97.20;;;;;;10483560;28;20211;-79
2024/03/09 03:10:52;;;;;;;0.50;0.50;;;6.40;97.00;;;;;;10479569;28;20209;-79
2024/03/09 03:15:54;;;;;;;0.43;0.43;;;6.50;97.10;;;;;;10490401;28;20606;-79
2024/03/09 03:20:56;;;;;;;0.50;0.50;;;6.50;97.40;;;;;;10479223;28;20233;-80
2024/03/09 03:26:00;;;;;;;0.50;0.50;;;6.60;97.10;;;;;;10498888;28;20205;-79
2024/03/09 03:31:05;;;;;;;0.53;0.53;;;6.60;97.30;;;;;;10546187;22;20231;-79
2024/03/09 03:36:08;;;;;;;0.60;0.60;;;6.70;97.20;;;;;;10539958;28;20630;-78
2024/03/09 03:41:12;;;;;;;0.60;0.60;;;6.70;97.10;;;;;;10515176;28;20231;-78
2024/03/09 03:46:16;;;;;;;0.60;0.60;;;6.70;97.20;;;;;;10512131;28;20338;-80
2024/03/09 03:51:18;;;;;;;0.50;0.50;;;6.70;97.30;;;;;;10523389;28;20220;-77
2024/03/09 03:56:24;;;;;;;0.50;0.50;;;6.80;97.40;;;;;;10527001;28;20297;-80
2024/03/09 04:01:26;;;;;;;0.50;0.50;;;6.80;97.30;;;;;;10532498;28;20227;-79
2024/03/09 04:06:29;;;;;;;0.70;0.70;;;6.80;97.20;;;;;;10517269;28;20241;-78
2024/03/09 04:11:33;;;;;;;0.90;0.90;;;6.80;97.20;;;;;;10506214;28;20209;-78
2024/03/09 04:16:36;;;;;;;1.07;1.07;;;6.80;97.20;;;;;;10512972;28;20245;-78
2024/03/09 04:21:39;;;;;;;0.60;0.60;;;6.80;97.40;;;;;;10505697;28;20277;-77
2024/03/09 04:26:42;;;;;;;0.80;0.80;;;7.00;97.50;;;;;;10516056;28;20201;-78
2024/03/09 04:31:45;;;;;;;0.80;0.80;;;7.00;97.40;;;;;;10528479;28;20232;-79
2024/03/09 04:36:47;;;;;;;0.60;0.60;;;7.00;97.10;;;;;;10519934;28;20227;-77
2024/03/09 04:41:54;;;;;;;0.80;0.80;;;7.10;97.30;;;;;;10506122;28;20227;-79
2024/03/09 04:46:56;;;;;;;0.87;0.87;;;7.10;97.20;;;;;;10509301;28;20763;-80
2024/03/09 04:51:59;;;;;;;0.80;0.80;;;7.20;97.10;;;;;;10527161;28;20261;-78
2024/03/09 04:57:04;;;;;;;0.80;0.80;;;7.20;97.20;;;;;;10520801;28;20657;-79
2024/03/09 05:02:06;;;;;;;0.67;0.67;;;7.20;97.10;;;;;;10513619;28;20293;-78
2024/03/09 05:07:09;;;;;;;0.80;0.80;;;7.30;97.20;;;;;;10513210;28;20258;-78
2024/03/09 05:12:13;;;;;;;0.77;0.77;;;7.30;97.10;;;;;;10534228;28;20214;-79
2024/03/09 05:17:15;;;;;;;0.60;0.60;;;7.30;96.10;;;;;;10501276;28;20204;-79
2024/03/09 05:22:17;;;;;;;0.70;0.70;;;7.20;96.10;;;;;;10525090;28;20224;-76
2024/03/09 05:27:21;;;;;;;0.90;0.90;;;7.30;96.60;;;;;;10524221;28;20200;-78
2024/03/09 05:32:23;;;;;;;0.70;0.70;;;7.40;96.20;;;;;;10506295;28;20240;-79
2024/03/09 05:37:26;;;;;;;0.60;0.60;;;7.30;96.30;;;;;;10487173;28;20631;-78
2024/03/09 05:42:31;;;;;;;0.60;0.60;;;7.30;96.40;;;;;;10522401;28;20220;-77
2024/03/09 05:47:33;;;;;;;0.70;0.70;;;7.30;96.30;;;;;;10483532;28;20767;-79
2024/03/09 05:52:35;;;;;;;0.50;0.50;;;7.30;96.50;;;;;;10512462;28;20636;-80
2024/03/09 05:57:42;;;;;;;0.63;0.63;;;7.30;96.60;;;;;;10500389;28;20254;-79
2024/03/09 06:02:46;;;;;;;0.70;0.70;;;7.30;96.50;;;;;;10520748;28;20288;-79
2024/03/09 06:07:49;;;;;;;0.70;0.70;;;7.20;96.50;;;;;;10527151;28;20206;-77
2024/03/09 06:12:53;;;;;;;0.50;0.50;;;7.20;95.70;;;;;;10511604;28;20224;-78
2024/03/09 06:17:58;;;;;;;0.60;0.60;;;7.20;95.50;;;;;;10500536;28;20636;-78
2024/03/09 06:23:02;;;;;;;0.60;0.60;;;7.10;95.40;;;;;;10519835;28;20223;-79
2024/03/09 06:28:07;;;;;;;0.70;0.70;;;7.00;95.40;;;;;;10503600;28;20278;-80
2024/03/09 06:33:10;;;;;;;0.70;0.70;;;7.00;95.70;;;;;;10518737;28;20231;-76
2024/03/09 06:38:13;;;;;;;0.70;0.70;;;7.00;95.90;;;;;;10530773;28;20621;-79
2024/03/09 06:43:20;;;;;;;0.50;0.50;;;7.00;96.00;;;;;;10509970;28;20224;-78
2024/03/09 06:48:23;;;;;;;0.70;0.70;;;7.00;96.00;;;;;;10493729;28;20205;-79
2024/03/09 06:53:26;;;;;;;0.60;0.60;;;7.00;96.00;;;;;;10518342;28;20192;-78
2024/03/09 06:58:29;;;;;;;0.80;0.80;;;7.00;96.10;;;;;;10531347;28;20608;-77
2024/03/09 07:03:35;;;;;;;0.60;0.60;;;7.00;96.00;;;;;;10501251;28;20228;-77
2024/03/09 07:08:38;;;;;;;0.60;0.60;;;7.00;96.10;;;;;;10493207;28;20232;-79
2024/03/09 07:13:42;;;;;;;0.70;0.70;;;7.00;96.30;;;;;;10512262;28;20568;-78
2024/03/09 07:18:45;;;;;;;0.50;0.50;;;6.90;96.30;;;;;;10494427;28;20232;-77
2024/03/09 07:23:47;;;;;;;0.60;0.60;;;6.90;96.30;;;;;;10515971;28;20570;-78
2024/03/09 07:28:53;;;;;;;0.60;0.60;;;7.00;96.30;;;;;;10529295;28;20288;-77
2024/03/09 07:33:58;;;;;;;0.50;0.50;;;7.00;96.30;;;;;;10513792;28;20249;-79
2024/03/09 07:39:01;;;;;;;0.60;0.60;;;7.00;96.40;;;;;;10527623;28;20245;-78
2024/03/09 07:44:07;;;;;;;0.60;0.60;;;7.00;96.70;;;;;;10508248;28;20626;-80
2024/03/09 07:49:13;;;;;;;0.50;0.50;;;7.00;96.70;;;;;;10485360;28;20212;-79
2024/03/09 07:54:16;;;;;;;0.60;0.60;;;7.00;97.00;;;;;;10515074;28;20203;-79
2024/03/09 07:59:20;;;;;;;0.50;0.50;;;7.10;97.00;;;;;;10524225;28;20222;-78
2024/03/09 08:04:22;;;;;;;0.57;0.57;;;7.20;97.10;;;;;;10510564;28;20238;-79
2024/03/09 08:09:24;;;;;;;0.70;0.70;;;7.30;97.20;;;;;;10500208;28;20219;-79
2024/03/09 08:14:33;;;;;;;0.60;0.60;;;7.40;97.30;;;;;;10520923;28;20262;-79
2024/03/09 08:19:36;;;;;;;0.60;0.60;;;7.50;97.40;;;;;;10519915;28;20781;-79
2024/03/09 08:24:38;;;;;;;0.70;0.70;;;7.60;97.50;;;;;;10487943;28;20229;-78
2024/03/09 08:29:43;;;;;;;0.57;0.57;;;7.70;97.50;;;;;;10480496;28;20221;-78
2024/03/09 08:34:46;;;;;;;0.40;0.40;;;7.90;97.00;;;;;;10524821;28;20200;-77
2024/03/09 08:39:50;;;;;;;0.40;0.40;;;8.10;97.00;;;;;;10530672;28;20227;-79
2024/03/09 08:44:57;;;;;;;0.40;0.40;;;8.20;96.80;;;;;;10514706;28;20208;-79
2024/03/09 08:50:01;;;;;;;0.47;0.47;;;8.30;96.90;;;;;;10485192;28;20305;-77
2024/03/09 08:55:07;;;;;;;0.40;0.40;;;8.40;96.70;;;;;;10501218;28;20212;-81
2024/03/09 09:00:11;;;;;;;0.30;0.30;;;8.50;96.70;;;;;;10523574;28;20291;-77
2024/03/09 09:05:14;;;;;;;0.40;0.40;;;8.70;96.70;;;;;;10496605;28;20678;-81
2024/03/09 09:10:20;;;;;;;0.50;0.50;;;8.80;96.70;;;;;;10520151;28;20604;-79
2024/03/09 09:15:24;;;;;;;0.40;0.40;;;8.90;96.70;;;;;;10509782;28;20641;-80
2024/03/09 09:20:27;;;;;;;0.50;0.50;;;9.10;96.50;;;;;;10517145;28;20224;-79
2024/03/09 09:25:29;;;;;;;0.40;0.40;;;9.20;96.70;;;;;;10537187;28;20199;-79
2024/03/09 09:30:33;;;;;;;0.50;0.50;;;9.40;96.80;;;;;;10535330;22;20588;-82
2024/03/09 09:35:36;;;;;;;0.43;0.43;;;9.50;96.70;;;;;;10588342;28;20211;-82
2024/03/09 09:40:38;;;;;;;0.60;0.60;;;9.70;96.50;;;;;;10580417;28;20227;-80
2024/03/09 09:45:45;;;;;;;0.50;0.50;;;9.80;96.60;;;;;;10523243;28;20192;-80
2024/03/09 09:50:48;;;;;;;0.40;0.40;;;;;;;;;;10523834;28;20216;-81
2024/03/09 09:55:50;;;;;;;0.50;0.50;;;10.40;95.70;;;;;;10533543;28;20230;-81
2024/03/09 10:00:54;;;;;;;0.50;0.50;;;10.80;94.00;;;;;;10525491;28;20220;-82
2024/03/09 10:05:57;;;;;;;0.50;0.50;;;11.10;94.30;;;;;;10541884;28;20214;-82
2024/03/09 10:10:59;;;;;;;0.40;0.40;;;11.40;94.30;;;;;;10530502;28;20252;-82
2024/03/09 10:16:05;;;;;;;0.50;0.50;;;11.60;91.90;;;;;;10527237;28;20200;-83
2024/03/09 10:21:08;;;;;;;0.50;0.50;;;11.80;90.80;;;;;;10514902;28;20285;-84
2024/03/09 10:26:11;;;;;;;0.50;0.50;;;11.90;90.70;;;;;;10522081;28;20192;-83
2024/03/09 10:31:18;;;;;;;0.43;0.43;;;11.90;91.10;;;;;;10534229;28;20220;-80
2024/03/09 10:36:22;;;;;;;0.50;0.50;;;11.90;91.00;;;;;;10536045;28;20680;-82
2024/03/09 10:41:26;;;;;;;0.40;0.40;;;11.80;91.60;;;;;;10538577;28;20732;-81
2024/03/09 10:46:32;;;;;;;0.40;0.40;;;11.80;91.40;;;;;;10532988;28;20212;-81
2024/03/09 10:51:41;;;;;;;0.40;0.40;;;11.70;92.10;;;;;;10526571;28;20219;-82
2024/03/09 10:56:46;;;;;;;0.43;0.43;;;11.70;90.60;;;;;;10533384;28;20262;-82
2024/03/09 11:01:52;;;;;;;0.40;0.40;;;11.90;90.90;;;;;;10519948;28;20729;-82
2024/03/09 11:06:55;;;;;;;0.33;0.33;;;12.00;90.60;;;;;;10536208;28;20227;-82
2024/03/09 11:11:59;;;;;;;0.40;0.40;;;12.20;90.60;;;;;;10531919;28;20219;-82
2024/03/09 11:17:05;;;;;;;0.40;0.40;;;12.20;91.10;;;;;;10529429;28;20200;-82
2024/03/09 11:22:07;;;;;;;0.40;0.40;;;12.20;91.50;;;;;;10527753;28;20227;-82
2024/03/09 11:27:13;;;;;;;0.50;0.50;;;12.10;91.60;;;;;;10501950;28;20196;-82
2024/03/09 11:32:22;;;;;;;0.50;0.50;;;12.10;91.90;;;;;;10533683;28;20234;-82
2024/03/09 11:37:40;;;;;;;0.50;0.50;;;12.10;92.20;;;;;;10528749;28;20196;-82
2024/03/09 11:42:43;;;;;;;0.50;0.50;;;12.10;92.00;;;;;;10525665;28;20784;-82
2024/03/09 11:47:46;;;;;;;0.40;0.40;;;12.00;92.50;;;;;;10520263;28;20212;-82
2024/03/09 11:52:49;;;;;;;0.40;0.40;;;11.90;93.00;;;;;;10529620;28;20277;-82
2024/03/09 11:57:53;;;;;;;0.40;0.40;;;11.90;93.10;;;;;;10539300;28;20207;-82
2024/03/09 12:02:59;;;;;;;0.30;0.30;;;12.00;91.70;;;;;;10526189;28;20565;-82
2024/03/09 12:08:02;;;;;;;0.47;0.47;;;12.00;91.90;;;;;;10528144;28;20674;-82
2024/03/09 12:13:06;;;;;;;0.47;0.47;;;12.10;87.10;;;;;;10515859;28;20209;-82
2024/03/09 12:18:11;;;;;;;0.30;0.30;;;12.40;83.60;;;;;;10504287;28;20624;-82
2024/03/09 12:23:15;;;;;;;0.30;0.30;;;12.80;80.50;;;;;;10540033;28;20243;-82
2024/03/09 12:28:17;;;;;;;0.40;0.40;;;12.90;82.00;;;;;;10549784;28;20204;-82
2024/03/09 12:33:22;;;;;;;0.40;0.40;;;13.00;81.90;;;;;;10522100;28;20224;-82
2024/03/09 12:38:25;;;;;;;0.30;0.30;;;13.10;80.60;;;;;;10541029;28;20196;-82
2024/03/09 12:43:29;;;;;;;0.50;0.50;;;13.20;82.50;;;;;;10531527;28;20216;-82
2024/03/09 12:48:35;;;;;;;0.40;0.40;;;13.10;84.30;;;;;;10554451;28;20219;-82
2024/03/09 12:53:38;;;;;;;0.40;0.40;;;13.10;82.00;;;;;;10538434;28;20212;-82
2024/03/09 12:58:40;;;;;;;0.30;0.30;;;13.30;83.10;;;;;;10532508;28;20200;-82
2024/03/09 13:03:54;;;;;;;0.40;0.40;;;13.50;83.10;;;;;;10525416;28;20239;-82
2024/03/09 13:08:58;;;;;;;0.40;0.40;;;13.60;82.30;;;;;;10529198;28;20275;-82
2024/03/09 13:14:01;;;;;;;0.43;0.43;;;13.80;79.30;;;;;;10508875;28;20224;-82
2024/03/09 13:19:05;;;;;;;0.40;0.40;;;13.90;80.90;;;;;;10519628;28;20558;-82
2024/03/09 13:24:16;;;;;;;0.50;0.50;;;13.90;78.50;;;;;;10546238;28;20712;-82
2024/03/09 13:29:20;;;;;;;0.40;0.40;;;14.20;77.90;;;;;;10549185;28;20200;-82
2024/03/09 13:34:24;;;;;;;0.30;0.30;;;14.50;76.30;;;;;;10539599;28;20243;-82
2024/03/09 13:39:34;;;;;;;0.40;0.40;;;14.80;75.70;;;;;;10532530;28;20206;-81
2024/03/09 13:44:36;;;;;;;0.30;0.30;;;14.90;78.50;;;;;;10536853;28;20224;-81
2024/03/09 13:49:40;;;;;;;0.30;0.30;;;14.90;75.40;;;;;;10519633;28;20204;-82
2024/03/09 13:54:44;;;;;;;0.30;0.30;;;15.00;73.40;;;;;;10536093;28;20211;-82
2024/03/09 13:59:48;;;;;;;0.30;0.30;;;15.00;74.40;;;;;;10555634;28;20199;-82
2024/03/09 14:04:53;;;;;;;0.20;0.20;;;15.00;72.60;;;;;;10555637;28;20231;-82
2024/03/09 14:09:55;;;;;;;0.40;0.40;;;15.00;72.70;;;;;;10544647;28;20226;-82
2024/03/09 14:14:58;;;;;;;0.30;0.30;;;14.80;74.80;;;;;;10514687;28;20216;-82
2024/03/09 14:20:15;;;;;;;0.30;0.30;;;14.60;73.00;;;;;;10515530;28;20266;-82
2024/03/09 14:25:19;;;;;;;0.30;0.30;;;14.50;73.00;;;;;;10501504;28;20223;-82
2024/03/09 14:30:27;;;;;;;0.30;0.30;;;14.50;73.20;;;;;;10507359;28;20233;-83
2024/03/09 14:35:33;;;;;;;0.60;0.60;;;14.50;75.00;;;;;;10508691;28;20212;-82
2024/03/09 14:40:36;;;;;;;0.50;0.50;;;14.40;77.30;;;;;;10506691;28;20205;-83
2024/03/09 14:45:38;;;;;;;0.60;0.60;;;14.30;76.30;;;;;;10489277;28;20596;-82
2024/03/09 14:50:42;;;;;;;0.50;0.50;;;14.40;73.70;;;;;;10512296;28;20193;-82
2024/03/09 14:55:45;;;;;;;0.50;0.50;;;14.70;72.70;;;;;;10508676;28;20192;-83
2024/03/09 15:00:54;;;;;;;0.40;0.40;;;14.70;74.70;;;;;;10509643;28;20678;-82
2024/03/09 15:05:58;;;;;;;0.40;0.40;;;14.60;78.50;;;;;;10487727;28;20221;-81
2024/03/09 15:11:01;;;;;;;0.60;0.60;;;14.40;79.40;;;;;;10491749;28;20235;-83
2024/03/09 15:16:04;;;;;;;0.50;0.50;;;14.30;78.00;;;;;;10505249;28;20196;-82
2024/03/09 15:21:09;;;;;;;0.50;0.50;;;14.30;75.00;;;;;;10488471;28;20227;-83
2024/03/09 15:26:11;;;;;;;0.50;0.50;;;14.30;77.50;;;;;;10506485;28;20224;-83
2024/03/09 15:31:15;;;;;;;0.50;0.50;;;14.30;77.00;;;;;;10490950;28;20338;-84
2024/03/09 15:36:18;;;;;;;0.50;0.50;;;14.10;80.10;;;;;;10593433;22;20718;-79
2024/03/09 15:41:21;;;;;;;0.60;0.60;;;14.00;75.00;;;;;;10555629;28;20615;-81
2024/03/09 15:46:23;;;;;;;0.50;0.50;;;14.10;75.90;;;;;;10564924;28;20704;-80
2024/03/09 15:51:27;;;;;;;0.60;0.60;;;14.20;75.00;;;;;;10562953;28;20305;-80
2024/03/09 15:56:30;;;;;;;0.50;0.50;;;14.20;75.60;;;;;;10570983;28;20219;-79
2024/03/09 16:01:34;;;;;;;0.50;0.50;;;14.20;75.50;;;;;;10566833;28;20657;-78
2024/03/09 16:06:38;;;;;;;0.40;0.40;;;14.20;75.60;;;;;;10551617;28;20219;-78
2024/03/09 16:11:41;;;;;;;0.40;0.40;;;14.30;74.80;;;;;;10560207;28;20567;-78
2024/03/09 16:16:45;;;;;;;0.50;0.50;;;14.40;75.50;;;;;;10549633;28;20210;-79
2024/03/09 16:21:49;;;;;;;0.47;0.47;;;14.40;76.40;;;;;;10544434;28;20764;-77
2024/03/09 16:26:51;;;;;;;0.40;0.40;;;14.30;77.00;;;;;;10529071;28;20309;-77
2024/03/09 16:31:53;;;;;;;0.50;0.50;;;14.20;77.70;;;;;;10565401;28;20199;-77
2024/03/09 16:36:57;;;;;;;0.40;0.40;;;14.10;77.90;;;;;;10571067;28;20183;-76
2024/03/09 16:42:03;;;;;;;0.40;0.40;;;14.10;77.50;;;;;;10545527;28;20241;-78
2024/03/09 16:47:06;;;;;;;0.40;0.40;;;14.10;77.90;;;;;;10549741;28;20188;-78
2024/03/09 16:52:10;;;;;;;0.50;0.50;;;14.00;78.50;;;;;;10549088;28;20238;-80
2024/03/09 16:57:13;;;;;;;0.30;0.30;;;13.90;79.30;;;;;;10568681;28;20195;-77
2024/03/09 17:02:16;;;;;;;0.40;0.40;;;13.80;79.00;;;;;;10558018;28;20223;-78
2024/03/09 17:07:20;;;;;;;0.40;0.40;;;13.80;79.40;;;;;;10548960;28;20660;-79
2024/03/09 17:12:22;;;;;;;0.40;0.40;;;13.80;80.20;;;;;;10553594;28;20693;-80
2024/03/09 17:17:25;;;;;;;0.40;0.40;;;13.70;81.50;;;;;;10535472;28;20196;-79
2024/03/09 17:22:30;;;;;;;0.40;0.40;;;13.50;83.30;;;;;;10565106;28;20766;-77
2024/03/09 17:27:33;;;;;;;0.40;0.40;;;13.30;84.80;;;;;;10539220;28;20662;-80
2024/03/09 17:32:35;;;;;;;0.40;0.40;;;13.10;86.80;;;;;;10529907;28;20223;-79
2024/03/09 17:37:39;;;;;;;0.40;0.40;;;13.00;87.30;;;;;;10531372;28;20202;-78
2024/03/09 17:42:42;;;;;;;0.40;0.40;;;12.90;88.20;;;;;;10565223;28;20216;-79
2024/03/09 17:47:44;;;;;;;0.40;0.40;;;12.80;89.00;;;;;;10517979;28;20207;-79
2024/03/09 17:52:49;;;;;;;0.47;0.47;;;12.70;90.00;;;;;;10551899;28;20220;-77
2024/03/09 17:57:52;;;;;;;0.40;0.40;;;12.50;90.40;;;;;;10570016;28;20255;-78
2024/03/09 18:02:56;;;;;;;0.50;0.50;;;12.40;90.80;;;;;;10548538;28;20207;-81
2024/03/09 18:08:04;;;;;;;0.60;0.60;;;12.40;91.00;;;;;;10554950;28;20203;-77
2024/03/09 18:13:07;;;;;;;0.53;0.53;;;12.30;91.30;;;;;;10561686;28;20208;-80
2024/03/09 18:18:10;;;;;;;0.50;0.50;;;12.30;91.40;;;;;;10509438;28;20225;-77
2024/03/09 18:23:14;;;;;;;0.50;0.50;;;12.20;91.80;;;;;;10550449;28;20211;-79
2024/03/09 18:28:17;;;;;;;0.40;0.40;;;12.10;91.70;;;;;;10577458;28;20216;-80
2024/03/09 18:33:20;;;;;;;0.40;0.40;;;12.00;91.90;;;;;;10565858;28;20223;-79
2024/03/09 18:38:24;;;;;;;0.50;0.50;;;11.90;92.20;;;;;;10571411;28;20202;-78
2024/03/09 18:43:28;;;;;;;0.50;0.50;;;11.90;92.20;;;;;;10498929;28;20297;-79
2024/03/09 18:48:30;;;;;;;0.10;0.10;;;11.80;92.40;;;;;;10522920;28;20281;-78
2024/03/09 18:53:35;;;;;;;0.40;0.40;;;11.80;92.50;;;;;;10533733;28;20257;-79
2024/03/09 18:58:40;;;;;;;0.20;0.20;;;11.80;92.50;;;;;;10546483;28;20192;-79
2024/03/09 19:03:46;;;;;;;0.40;0.40;;;11.70;92.30;;;;;;10542965;28;20219;-79
2024/03/09 19:08:50;;;;;;;0.50;0.50;;;11.70;92.50;;;;;;10540416;28;20238;-79
2024/03/09 19:13:53;;;;;;;0.40;0.40;;;11.60;92.60;;;;;;10502346;28;20531;-79
2024/03/09 19:18:56;;;;;;;0.40;0.40;;;11.50;92.60;;;;;;10532639;28;20715;-81
2024/03/09 19:24:00;;;;;;;0.40;0.40;;;11.50;92.60;;;;;;10550225;28;20220;-78
2024/03/09 19:29:06;;;;;;;0.30;0.30;;;11.40;92.70;;;;;;10528793;28;20208;-78
2024/03/09 19:34:08;;;;;;;0.50;0.50;;;11.40;92.90;;;;;;10512324;28;20296;-77
2024/03/09 19:39:12;;;;;;;0.50;0.50;;;11.30;92.90;;;;;;10562183;28;20202;-77
2024/03/09 19:44:14;;;;;;;0.30;0.30;;;11.20;93.00;;;;;;10534471;28;20219;-78
2024/03/09 19:49:17;;;;;;;0.50;0.50;;;11.20;93.10;;;;;;10547626;28;20222;-77
2024/03/09 19:54:21;;;;;;;0.13;0.13;;;11.10;93.30;;;;;;10547017;28;20207;-78
2024/03/09 19:59:23;;;;;;;0.40;0.40;;;11.00;93.20;;;;;;10569692;28;20222;-77
2024/03/09 20:04:26;;;;;;;0.50;0.50;;;10.90;93.30;;;;;;10501605;28;20226;-79
2024/03/09 20:09:29;;;;;;;0.40;0.40;;;10.80;93.30;;;;;;10529506;28;20634;-79
2024/03/09 20:14:33;;;;;;;0.40;0.40;;;10.70;93.20;;;;;;10538426;28;20226;-78
2024/03/09 20:19:35;;;;;;;0.20;0.20;;;10.70;93.30;;;;;;10535865;28;20200;-81
2024/03/09 20:24:39;;;;;;;0.50;0.50;;;10.60;93.40;;;;;;10515493;28;20275;-80
2024/03/09 20:29:41;;;;;;;0.30;0.30;;;10.60;93.40;;;;;;10564147;28;20657;-76
2024/03/09 20:34:43;;;;;;;0.40;0.40;;;10.60;93.20;;;;;;10529538;28;20579;-77
2024/03/09 20:39:47;;;;;;;0.40;0.40;;;10.60;93.20;;;;;;10553709;28;20249;-79
2024/03/09 20:44:50;;;;;;;0.40;0.40;;;10.50;93.20;;;;;;10523981;28;20617;-78
2024/03/09 20:49:52;;;;;;;0.30;0.30;;;10.50;93.10;;;;;;10497463;28;20235;-80
2024/03/09 20:54:57;;;;;;;0.40;0.40;;;10.50;92.80;;;;;;10509319;28;20215;-79
2024/03/09 21:00:00;;;;;;;0.40;0.40;;;10.70;91.70;;;;;;10524357;28;20204;-79
2024/03/09 21:05:03;;;;;;;0.40;0.40;;;10.90;91.50;;;;;;10497702;28;20230;-79
2024/03/09 21:10:09;;;;;;;0.50;0.50;;;11.00;91.00;;;;;;10515419;28;20198;-77
2024/03/09 21:15:11;;;;;;;0.40;0.40;;;11.10;90.80;;;;;;10528487;28;20241;-80
2024/03/09 21:20:14;;;;;;;0.40;0.40;;;11.30;90.60;;;;;;10505764;28;20200;-80
2024/03/09 21:25:18;;;;;;;0.40;0.40;;;11.30;90.50;;;;;;10495329;28;20218;-80
2024/03/09 21:30:20;;;;;;;0.30;0.30;;;11.30;90.50;;;;;;10495389;28;20672;-80
2024/03/09 21:35:23;;;;;;;0.40;0.40;;;11.30;90.50;;;;;;10568035;22;20231;-75
2024/03/09 21:40:26;;;;;;;0.40;0.40;;;11.20;90.50;;;;;;10545909;28;20207;-76
2024/03/09 21:45:29;;;;;;;0.30;0.30;;;11.10;90.40;;;;;;10525998;28;20216;-76
2024/03/09 21:50:31;;;;;;;0.33;0.33;;;11.10;90.60;;;;;;10490030;28;20208;-75
2024/03/09 21:55:35;;;;;;;0.40;0.40;;;10.90;90.80;;;;;;10492857;28;20269;-74
2024/03/09 22:00:38;;;;;;;0.37;0.37;;;10.80;91.10;;;;;;10531360;28;20196;-74
2024/03/09 22:05:40;;;;;;;0.40;0.40;;;10.70;91.20;;;;;;10493749;28;20598;-74
2024/03/09 22:10:44;;;;;;;0.20;0.20;;;10.60;91.40;;;;;;10520360;28;20219;-74
2024/03/09 22:15:49;;;;;;;0.30;0.30;;;10.40;91.50;;;;;;10519226;28;20635;-74
2024/03/09 22:20:52;;;;;;;0.30;0.30;;;10.30;91.70;;;;;;10521934;28;20192;-74
2024/03/09 22:25:56;;;;;;;0.37;0.37;;;10.20;91.80;;;;;;10514678;28;20230;-74
2024/03/09 22:30:59;;;;;;;0.30;0.30;;;10.10;92.00;;;;;;10526684;28;20188;-74
2024/03/09 22:36:02;;;;;;;0.30;0.30;;;10.10;92.10;;;;;;10524124;28;20219;-74
2024/03/09 22:41:06;;;;;;;0.40;0.40;;;10.00;92.20;;;;;;10525980;28;20208;-74
2024/03/09 22:46:11;;;;;;;0.30;0.30;;;10.00;92.40;;;;;;10503492;28;20307;-74
2024/03/09 22:51:13;;;;;;;0.30;0.30;;;9.90;93.10;;;;;;10523131;28;20617;-74
2024/03/09 22:56:17;;;;;;;0.40;0.40;;;9.80;93.10;;;;;;10500772;28;20212;-74
2024/03/09 23:01:25;;;;;;;0.30;0.30;;;9.80;93.30;;;;;;10524750;28;20192;-74
2024/03/09 23:06:27;;;;;;;0.40;0.40;;;9.80;93.20;;;;;;10495275;28;20294;-76
2024/03/09 23:11:31;;;;;;;0.30;0.30;;;9.70;93.00;;;;;;10515901;28;21365;-75
2024/03/09 23:16:34;;;;;;;0.30;0.30;;;9.70;92.80;;;;;;10514383;28;20690;-74
2024/03/09 23:21:37;;;;;;;0.30;0.30;;;9.70;92.70;;;;;;10525169;28;20204;-75
2024/03/09 23:26:41;;;;;;;0.50;0.50;;;9.70;92.50;;;;;;10523615;28;20262;-76
2024/03/09 23:31:43;;;;;;;0.40;0.40;;;9.70;92.50;;;;;;10523412;28;20722;-76
2024/03/09 23:36:46;;;;;;;0.30;0.30;;;9.70;92.50;;;;;;10515201;28;20231;-75
2024/03/09 23:41:49;;;;;;;0.40;0.40;;;9.70;92.40;;;;;;10514006;28;20208;-76
2024/03/09 23:46:52;;;;;;;0.50;0.50;;;9.70;92.50;;;;;;10518215;28;20223;-75
2024/03/09 23:51:54;;;;;;;0.23;0.23;;;9.70;92.50;;;;;;10527097;28;20661;-75
2024/03/09 23:56:58;;;;;;;0.30;0.30;;;9.70;92.50;;;;;;10512917;28;20624;-76
